Sada Maru No.37 — JD3568 — position and weather

sailwx.info

Track history (hours):
 
Tides and Currents Weather Stations Pressure Air Temp Water Temp Dewpoint Dewpoint Depression Visibility Wind Speed Wind Dir Waves Ship Positions

Sada Maru No.37

Last reported at 2018-Apr-24 02:37 UTC. Time now 2018-Apr-24 14:30 UTC.
Position N 34°41' E 137°04'.

Length 78 m; draft 4.5 m.

Type: Cargo ship. MMSI: 431005101.

Date/timePositionNaut miles runAvg speedWind from/ knotsBaromVisibWave heightAir tempDewpointWater temp
2018-Apr-24 02:37N 34°41' E 137°04'212.0
2018-Apr-24 02:26N 34°42' E 137°06'612.3
2018-Apr-24 01:58N 34°45' E 137°12'4 8.7
2018-Apr-24 01:29N 34°49' E 137°13'0 0.0
2018-Apr-24 00:02N 34°49' E 137°13'0 0.0
2018-Apr-23 23:33N 34°49' E 137°13'0 0.1
2018-Apr-23 23:30N 34°49' E 137°13'0 0.2
2018-Apr-23 22:58N 34°49' E 137°13'510.0
2018-Apr-23 22:30N 34°44' E 137°12'0 0.5
2018-Apr-23 21:57N 34°44' E 137°12'0 0.0
2018-Apr-23 21:03N 34°44' E 137°12'0 0.0
2018-Apr-23 20:57N 34°44' E 137°12'0 0.0
2018-Apr-23 20:27N 34°44' E 137°12'0 0.0
2018-Apr-23 19:51N 34°44' E 137°12'0 0.0
2018-Apr-23 19:27N 34°44' E 137°12'0 0.0
2018-Apr-23 18:57N 34°44' E 137°12'4 8.0
2018-Apr-23 18:30N 34°43' E 137°07'912.7
2018-Apr-23 17:48N 34°38' E 136°59'1010.4
2018-Apr-23 16:49N 34°33' E 137°10'5213.3
2018-Apr-23 12:52N 34°34' E 138°14'513.4
2018-Apr-23 12:29N 34°34' E 138°20'1113.3
2018-Apr-23 11:41N 34°35' E 138°33'212.8
2018-Apr-23 11:30N 34°35' E 138°36'812.8
2018-Apr-23 10:54N 34°35' E 138°45'711.9
2018-Apr-23 10:18N 34°35' E 138°53'511.7
2018-Apr-23 09:53N 34°38' E 138°59'713.5
2018-Apr-23 09:22N 34°44' E 139°03'613.6
2018-Apr-23 08:55N 34°49' E 139°07'613.6
2018-Apr-23 08:27N 34°54' E 139°11'712.9
2018-Apr-23 07:55N 34°58' E 139°18'511.9
2018-Apr-23 07:28N 35°00' E 139°24'613.4
2018-Apr-23 07:00N 35°03' E 139°31'713.6
2018-Apr-23 06:30N 35°06' E 139°38'713.7
2018-Apr-23 06:00N 35°10' E 139°45'612.5
2018-Apr-23 05:30N 35°17' E 139°45'713.1
2018-Apr-23 05:00N 35°23' E 139°42'3 5.9
2018-Apr-23 04:30N 35°24' E 139°45'0 0.0
2018-Apr-23 04:00N 35°24' E 139°45'0 0.9
2018-Apr-23 03:30N 35°24' E 139°46'612.4
2018-Apr-23 03:00N 35°22' E 139°53'0 0.4
2018-Apr-23 02:30N 35°22' E 139°53'0 0.0
2018-Apr-23 02:00N 35°22' E 139°53'0 0.0
2018-Apr-23 01:30N 35°22' E 139°53'0 0.0
2018-Apr-23 01:00N 35°22' E 139°53'0 0.0
2018-Apr-23 00:30N 35°22' E 139°53'0 0.0
2018-Apr-23 00:00N 35°22' E 139°53'0 0.5
2018-Apr-22 23:28N 35°22' E 139°53'0 0.0
2018-Apr-22 22:58N 35°22' E 139°53'0 0.0
2018-Apr-22 22:22N 35°22' E 139°53'0 0.0
2018-Apr-22 21:58N 35°22' E 139°53'0 0.0
2018-Apr-22 21:28N 35°22' E 139°53'0 0.0
2018-Apr-22 20:58N 35°22' E 139°53'0 0.0
2018-Apr-22 20:28N 35°22' E 139°53'0 0.0
2018-Apr-22 19:55N 35°22' E 139°53'0 0.0
2018-Apr-22 19:28N 35°22' E 139°53'0 0.0
2018-Apr-22 18:58N 35°22' E 139°53'0 0.0
2018-Apr-22 18:28N 35°22' E 139°53'0 0.0
2018-Apr-22 17:58N 35°22' E 139°53'0 0.0
2018-Apr-22 17:28N 35°22' E 139°53'0 0.1
2018-Apr-22 16:43N 35°22' E 139°53'0 0.0
2018-Apr-22 16:22N 35°22' E 139°53'0 0.0
2018-Apr-22 15:58N 35°22' E 139°53'0 0.0
2018-Apr-22 15:25N 35°22' E 139°53'0 0.0
2018-Apr-22 14:49N 35°22' E 139°53'0 0.0
2018-Apr-22 14:28N 35°22' E 139°53'0 0.0
2018-Apr-22 13:58N 35°22' E 139°53'0 0.0
2018-Apr-22 13:28N 35°22' E 139°53'0 0.0
2018-Apr-22 12:55N 35°22' E 139°53'0 0.0
2018-Apr-22 12:28N 35°22' E 139°53'0 0.0
2018-Apr-22 11:55N 35°22' E 139°53'0 0.0
2018-Apr-22 11:25N 35°22' E 139°53'0 0.1
2018-Apr-22 10:58N 35°22' E 139°53'0 0.1
2018-Apr-22 10:28N 35°22' E 139°53'0 0.0
2018-Apr-22 09:58N 35°22' E 139°53'0 0.0
2018-Apr-22 09:28N 35°22' E 139°53'0 0.0
2018-Apr-22 08:58N 35°22' E 139°53'0 0.0
2018-Apr-22 08:25N 35°22' E 139°53'0 0.0
2018-Apr-22 07:58N 35°22' E 139°53'0 0.0
2018-Apr-22 07:28N 35°22' E 139°53'0 0.0
2018-Apr-22 06:58N 35°22' E 139°53'0 0.0
2018-Apr-22 06:22N 35°22' E 139°53'0 0.0
2018-Apr-22 05:58N 35°22' E 139°53'0 0.0
2018-Apr-22 05:28N 35°22' E 139°53'0 0.0
2018-Apr-22 04:58N 35°22' E 139°53'0 0.0
2018-Apr-22 04:28N 35°22' E 139°53'0 0.0
2018-Apr-22 03:58N 35°22' E 139°53'0 0.0
2018-Apr-22 03:29N 35°22' E 139°53'4 7.4
2018-Apr-22 03:00N 35°23' E 139°49'510.9
2018-Apr-22 02:31N 35°20' E 139°44'611.4
2018-Apr-22 02:00N 35°14' E 139°47'612.4
2018-Apr-22 01:30N 35°08' E 139°46'612.5
2018-Apr-22 01:00N 35°02' E 139°45'611.9
2018-Apr-22 00:29N 34°56' E 139°45'510.3
2018-Apr-22 00:00N 34°52' E 139°49'811.5
2018-Apr-21 23:17N 34°54' E 139°59'712.1
2018-Apr-21 22:44N 34°57' E 140°06'511.9
2018-Apr-21 22:20N 35°00' E 140°10'511.8
2018-Apr-21 21:53N 35°03' E 140°16'511.4
2018-Apr-21 21:26N 35°06' E 140°21'510.6
2018-Apr-21 21:00N 35°09' E 140°26'39510.2
2018-Apr-20 06:06N 41°41' E 141°22'112.8
2018-Apr-20 06:00N 41°42' E 141°21'713.2
2018-Apr-20 05:30N 41°48' E 141°16'6 0.6
2018-Apr-19 20:22N 41°53' E 141°15'512.3
2018-Apr-19 19:58N 41°51' E 141°20'612.5
2018-Apr-19 19:29N 41°46' E 141°24'612.3
2018-Apr-19 19:00N 41°40' E 141°27'1111.7
2018-Apr-19 18:07N 41°30' E 141°32'111.7
2018-Apr-19 17:59N 41°29' E 141°32'1312.0
2018-Apr-19 16:52N 41°16' E 141°33'512.4
2018-Apr-19 16:29N 41°11' E 141°33'612.6
2018-Apr-19 16:00N 41°05' E 141°34'712.5
2018-Apr-19 15:28N 40°58' E 141°36'35711.7
2018-Apr-18 08:58N 35°06' E 140°21'711.9
2018-Apr-18 08:24N 35°02' E 140°14'511.6
2018-Apr-18 08:00N 34°60' E 140°09'611.5
2018-Apr-18 07:29N 34°56' E 140°03'911.0
2018-Apr-18 06:40N 34°52' E 139°53'211.4
2018-Apr-18 06:30N 34°53' E 139°51'611.0
2018-Apr-18 05:57N 34°53' E 139°44'511.3
2018-Apr-18 05:29N 34°53' E 139°37'611.4
2018-Apr-18 04:59N 34°52' E 139°30'611.5
2018-Apr-18 04:29N 34°51' E 139°23'611.9
2018-Apr-18 03:58N 34°47' E 139°17'612.1
2018-Apr-18 03:30N 34°44' E 139°12'611.9
2018-Apr-18 03:00N 34°41' E 139°06'611.6
2018-Apr-18 02:30N 34°37' E 139°00'711.8
2018-Apr-18 01:56N 34°35' E 138°52'512.2
2018-Apr-18 01:29N 34°35' E 138°46'712.0
2018-Apr-18 00:55N 34°35' E 138°37'612.1
2018-Apr-18 00:25N 34°35' E 138°30'611.2
2018-Apr-17 23:50N 34°34' E 138°22'410.6
2018-Apr-17 23:30N 34°34' E 138°18'4810.5
2018-Apr-17 18:54N 34°28' E 137°20'3310.4
2018-Apr-17 15:43N 34°08' E 136°48'311.8
2018-Apr-17 15:30N 34°06' E 136°45'83 9.4
2018-Apr-17 06:45N 33°45' E 135°09'413.0
2018-Apr-17 06:28N 33°48' E 135°06'613.2
2018-Apr-17 06:00N 33°52' E 135°02'612.8
2018-Apr-17 05:30N 33°59' E 135°01'713.3
2018-Apr-17 05:00N 34°05' E 135°02'612.9
2018-Apr-17 04:30N 34°11' E 135°06'2 4.4
2018-Apr-17 04:00N 34°12' E 135°08'0 0.0
2018-Apr-17 03:30N 34°12' E 135°08'0 0.0
2018-Apr-17 03:00N 34°13' E 135°08'0 0.0
2018-Apr-17 02:30N 34°13' E 135°08'0 0.8
2018-Apr-17 02:00N 34°13' E 135°07'1 2.3
2018-Apr-17 01:30N 34°14' E 135°08'0 0.0
2018-Apr-17 01:00N 34°14' E 135°08'0 0.0
2018-Apr-17 00:30N 34°14' E 135°08'0 0.0
2018-Apr-17 00:00N 34°14' E 135°08'0 0.0
2018-Apr-16 23:30N 34°14' E 135°08'0 0.0
2018-Apr-16 23:00N 34°14' E 135°08'0 0.0
2018-Apr-16 22:30N 34°14' E 135°08'0 0.1
2018-Apr-16 22:00N 34°14' E 135°08'2 3.7
2018-Apr-16 21:30N 34°15' E 135°06'0 0.0
2018-Apr-16 21:00N 34°15' E 135°06'0 0.0
2018-Apr-16 20:30N 34°15' E 135°06'0 0.0
2018-Apr-16 20:00N 34°15' E 135°06'0 0.0
2018-Apr-16 19:30N 34°15' E 135°06'0 0.0
2018-Apr-16 19:00N 34°15' E 135°06'0 0.0
2018-Apr-16 18:30N 34°15' E 135°06'0 0.0
2018-Apr-16 18:00N 34°15' E 135°06'0 0.0
2018-Apr-16 17:30N 34°15' E 135°06'0 0.1
2018-Apr-16 17:00N 34°15' E 135°06'0 0.0
2018-Apr-16 16:30N 34°15' E 135°06'0 0.0
2018-Apr-16 16:00N 34°15' E 135°06'0 0.0
2018-Apr-16 15:30N 34°15' E 135°06'0 0.0
2018-Apr-16 15:00N 34°15' E 135°06'0 0.0
2018-Apr-16 14:30N 34°15' E 135°06'0 0.8
2018-Apr-16 14:00N 34°15' E 135°05'611.8
2018-Apr-16 13:30N 34°11' E 134°60'612.2
2018-Apr-16 13:00N 34°09' E 134°53'611.7
2018-Apr-16 12:30N 34°09' E 134°46'612.8
2018-Apr-16 12:00N 34°13' E 134°40'612.2
2018-Apr-16 11:30N 34°17' E 134°34'613.0
2018-Apr-16 11:01N 34°19' E 134°27'612.9
2018-Apr-16 10:30N 34°21' E 134°20'611.9
2018-Apr-16 09:58N 34°24' E 134°13'2 0.0
2018-Apr-14 21:29N 34°24' E 134°15'612.9
2018-Apr-14 21:00N 34°25' E 134°22'612.5
2018-Apr-14 20:30N 34°28' E 134°29'612.2
2018-Apr-14 20:00N 34°30' E 134°36'612.4
2018-Apr-14 19:31N 34°32' E 134°43'612.1
2018-Apr-14 19:00N 34°34' E 134°50'611.5
2018-Apr-14 18:31N 34°37' E 134°56'5 9.4
2018-Apr-14 18:01N 34°37' E 135°02'4 8.3
2018-Apr-14 17:30N 34°34' E 135°06'612.1
2018-Apr-14 17:00N 34°28' E 135°04'612.3
2018-Apr-14 16:30N 34°23' E 135°02'611.7
2018-Apr-14 16:00N 34°17' E 134°59'611.1
2018-Apr-14 15:30N 34°12' E 134°60'612.4
2018-Apr-14 15:00N 34°05' E 135°00'612.6
2018-Apr-14 14:30N 33°59' E 135°01'612.2
2018-Apr-14 14:00N 33°53' E 135°02'611.6
2018-Apr-14 13:28N 33°47' E 135°05'  
Track history (hours):
 
Tides and Currents Weather Stations Pressure Air Temp Water Temp Dewpoint Dewpoint Depression Visibility Wind Speed Wind Dir Waves Ship Positions

Sada Maru No.37

Last reported at 2018-Apr-24 02:37 UTC. Time now 2018-Apr-24 14:30 UTC.
Position N 34°41' E 137°04'.

Length 78 m; draft 4.5 m.

Type: Cargo ship. MMSI: 431005101.

Date/timePositionNaut miles runAvg speedWind from/ knotsBaromVisibWave heightAir tempDewpointWater temp
2018-Apr-24 02:37N 34°41' E 137°04'212.0
2018-Apr-24 02:26N 34°42' E 137°06'612.3
2018-Apr-24 01:58N 34°45' E 137°12'4 8.7
2018-Apr-24 01:29N 34°49' E 137°13'0 0.0
2018-Apr-24 00:02N 34°49' E 137°13'0 0.0
2018-Apr-23 23:33N 34°49' E 137°13'0 0.1
2018-Apr-23 23:30N 34°49' E 137°13'0 0.2
2018-Apr-23 22:58N 34°49' E 137°13'510.0
2018-Apr-23 22:30N 34°44' E 137°12'0 0.5
2018-Apr-23 21:57N 34°44' E 137°12'0 0.0
2018-Apr-23 21:03N 34°44' E 137°12'0 0.0
2018-Apr-23 20:57N 34°44' E 137°12'0 0.0
2018-Apr-23 20:27N 34°44' E 137°12'0 0.0
2018-Apr-23 19:51N 34°44' E 137°12'0 0.0
2018-Apr-23 19:27N 34°44' E 137°12'0 0.0
2018-Apr-23 18:57N 34°44' E 137°12'4 8.0
2018-Apr-23 18:30N 34°43' E 137°07'912.7
2018-Apr-23 17:48N 34°38' E 136°59'1010.4
2018-Apr-23 16:49N 34°33' E 137°10'5213.3
2018-Apr-23 12:52N 34°34' E 138°14'513.4
2018-Apr-23 12:29N 34°34' E 138°20'1113.3
2018-Apr-23 11:41N 34°35' E 138°33'212.8
2018-Apr-23 11:30N 34°35' E 138°36'812.8
2018-Apr-23 10:54N 34°35' E 138°45'711.9
2018-Apr-23 10:18N 34°35' E 138°53'511.7
2018-Apr-23 09:53N 34°38' E 138°59'713.5
2018-Apr-23 09:22N 34°44' E 139°03'613.6
2018-Apr-23 08:55N 34°49' E 139°07'613.6
2018-Apr-23 08:27N 34°54' E 139°11'712.9
2018-Apr-23 07:55N 34°58' E 139°18'511.9
2018-Apr-23 07:28N 35°00' E 139°24'613.4
2018-Apr-23 07:00N 35°03' E 139°31'713.6
2018-Apr-23 06:30N 35°06' E 139°38'713.7
2018-Apr-23 06:00N 35°10' E 139°45'612.5
2018-Apr-23 05:30N 35°17' E 139°45'713.1
2018-Apr-23 05:00N 35°23' E 139°42'3 5.9
2018-Apr-23 04:30N 35°24' E 139°45'0 0.0
2018-Apr-23 04:00N 35°24' E 139°45'0 0.9
2018-Apr-23 03:30N 35°24' E 139°46'612.4
2018-Apr-23 03:00N 35°22' E 139°53'0 0.4
2018-Apr-23 02:30N 35°22' E 139°53'0 0.0
2018-Apr-23 02:00N 35°22' E 139°53'0 0.0
2018-Apr-23 01:30N 35°22' E 139°53'0 0.0
2018-Apr-23 01:00N 35°22' E 139°53'0 0.0
2018-Apr-23 00:30N 35°22' E 139°53'0 0.0
2018-Apr-23 00:00N 35°22' E 139°53'0 0.5
2018-Apr-22 23:28N 35°22' E 139°53'0 0.0
2018-Apr-22 22:58N 35°22' E 139°53'0 0.0
2018-Apr-22 22:22N 35°22' E 139°53'0 0.0
2018-Apr-22 21:58N 35°22' E 139°53'0 0.0
2018-Apr-22 21:28N 35°22' E 139°53'0 0.0
2018-Apr-22 20:58N 35°22' E 139°53'0 0.0
2018-Apr-22 20:28N 35°22' E 139°53'0 0.0
2018-Apr-22 19:55N 35°22' E 139°53'0 0.0
2018-Apr-22 19:28N 35°22' E 139°53'0 0.0
2018-Apr-22 18:58N 35°22' E 139°53'0 0.0
2018-Apr-22 18:28N 35°22' E 139°53'0 0.0
2018-Apr-22 17:58N 35°22' E 139°53'0 0.0
2018-Apr-22 17:28N 35°22' E 139°53'0 0.1
2018-Apr-22 16:43N 35°22' E 139°53'0 0.0
2018-Apr-22 16:22N 35°22' E 139°53'0 0.0
2018-Apr-22 15:58N 35°22' E 139°53'0 0.0
2018-Apr-22 15:25N 35°22' E 139°53'0 0.0
2018-Apr-22 14:49N 35°22' E 139°53'0 0.0
2018-Apr-22 14:28N 35°22' E 139°53'0 0.0
2018-Apr-22 13:58N 35°22' E 139°53'0 0.0
2018-Apr-22 13:28N 35°22' E 139°53'0 0.0
2018-Apr-22 12:55N 35°22' E 139°53'0 0.0
2018-Apr-22 12:28N 35°22' E 139°53'0 0.0
2018-Apr-22 11:55N 35°22' E 139°53'0 0.0
2018-Apr-22 11:25N 35°22' E 139°53'0 0.1
2018-Apr-22 10:58N 35°22' E 139°53'0 0.1
2018-Apr-22 10:28N 35°22' E 139°53'0 0.0
2018-Apr-22 09:58N 35°22' E 139°53'0 0.0
2018-Apr-22 09:28N 35°22' E 139°53'0 0.0
2018-Apr-22 08:58N 35°22' E 139°53'0 0.0
2018-Apr-22 08:25N 35°22' E 139°53'0 0.0
2018-Apr-22 07:58N 35°22' E 139°53'0 0.0
2018-Apr-22 07:28N 35°22' E 139°53'0 0.0
2018-Apr-22 06:58N 35°22' E 139°53'0 0.0
2018-Apr-22 06:22N 35°22' E 139°53'0 0.0
2018-Apr-22 05:58N 35°22' E 139°53'0 0.0
2018-Apr-22 05:28N 35°22' E 139°53'0 0.0
2018-Apr-22 04:58N 35°22' E 139°53'0 0.0
2018-Apr-22 04:28N 35°22' E 139°53'0 0.0
2018-Apr-22 03:58N 35°22' E 139°53'0 0.0
2018-Apr-22 03:29N 35°22' E 139°53'4 7.4
2018-Apr-22 03:00N 35°23' E 139°49'510.9
2018-Apr-22 02:31N 35°20' E 139°44'611.4
2018-Apr-22 02:00N 35°14' E 139°47'612.4
2018-Apr-22 01:30N 35°08' E 139°46'612.5
2018-Apr-22 01:00N 35°02' E 139°45'611.9
2018-Apr-22 00:29N 34°56' E 139°45'510.3
2018-Apr-22 00:00N 34°52' E 139°49'811.5
2018-Apr-21 23:17N 34°54' E 139°59'712.1
2018-Apr-21 22:44N 34°57' E 140°06'511.9
2018-Apr-21 22:20N 35°00' E 140°10'511.8
2018-Apr-21 21:53N 35°03' E 140°16'511.4
2018-Apr-21 21:26N 35°06' E 140°21'510.6
2018-Apr-21 21:00N 35°09' E 140°26'39510.2
2018-Apr-20 06:06N 41°41' E 141°22'112.8
2018-Apr-20 06:00N 41°42' E 141°21'713.2
2018-Apr-20 05:30N 41°48' E 141°16'6 0.6
2018-Apr-19 20:22N 41°53' E 141°15'512.3
2018-Apr-19 19:58N 41°51' E 141°20'612.5
2018-Apr-19 19:29N 41°46' E 141°24'612.3
2018-Apr-19 19:00N 41°40' E 141°27'1111.7
2018-Apr-19 18:07N 41°30' E 141°32'111.7
2018-Apr-19 17:59N 41°29' E 141°32'1312.0
2018-Apr-19 16:52N 41°16' E 141°33'512.4
2018-Apr-19 16:29N 41°11' E 141°33'612.6
2018-Apr-19 16:00N 41°05' E 141°34'712.5
2018-Apr-19 15:28N 40°58' E 141°36'35711.7
2018-Apr-18 08:58N 35°06' E 140°21'711.9
2018-Apr-18 08:24N 35°02' E 140°14'511.6
2018-Apr-18 08:00N 34°60' E 140°09'611.5
2018-Apr-18 07:29N 34°56' E 140°03'911.0
2018-Apr-18 06:40N 34°52' E 139°53'211.4
2018-Apr-18 06:30N 34°53' E 139°51'611.0
2018-Apr-18 05:57N 34°53' E 139°44'511.3
2018-Apr-18 05:29N 34°53' E 139°37'611.4
2018-Apr-18 04:59N 34°52' E 139°30'611.5
2018-Apr-18 04:29N 34°51' E 139°23'611.9
2018-Apr-18 03:58N 34°47' E 139°17'612.1
2018-Apr-18 03:30N 34°44' E 139°12'611.9
2018-Apr-18 03:00N 34°41' E 139°06'611.6
2018-Apr-18 02:30N 34°37' E 139°00'711.8
2018-Apr-18 01:56N 34°35' E 138°52'512.2
2018-Apr-18 01:29N 34°35' E 138°46'712.0
2018-Apr-18 00:55N 34°35' E 138°37'612.1
2018-Apr-18 00:25N 34°35' E 138°30'611.2
2018-Apr-17 23:50N 34°34' E 138°22'410.6
2018-Apr-17 23:30N 34°34' E 138°18'4810.5
2018-Apr-17 18:54N 34°28' E 137°20'3310.4
2018-Apr-17 15:43N 34°08' E 136°48'311.8
2018-Apr-17 15:30N 34°06' E 136°45'83 9.4
2018-Apr-17 06:45N 33°45' E 135°09'413.0
2018-Apr-17 06:28N 33°48' E 135°06'613.2
2018-Apr-17 06:00N 33°52' E 135°02'612.8
2018-Apr-17 05:30N 33°59' E 135°01'713.3
2018-Apr-17 05:00N 34°05' E 135°02'612.9
2018-Apr-17 04:30N 34°11' E 135°06'2 4.4
2018-Apr-17 04:00N 34°12' E 135°08'0 0.0
2018-Apr-17 03:30N 34°12' E 135°08'0 0.0
2018-Apr-17 03:00N 34°13' E 135°08'0 0.0
2018-Apr-17 02:30N 34°13' E 135°08'0 0.8
2018-Apr-17 02:00N 34°13' E 135°07'1 2.3
2018-Apr-17 01:30N 34°14' E 135°08'0 0.0
2018-Apr-17 01:00N 34°14' E 135°08'0 0.0
2018-Apr-17 00:30N 34°14' E 135°08'0 0.0
2018-Apr-17 00:00N 34°14' E 135°08'0 0.0
2018-Apr-16 23:30N 34°14' E 135°08'0 0.0
2018-Apr-16 23:00N 34°14' E 135°08'0 0.0
2018-Apr-16 22:30N 34°14' E 135°08'0 0.1
2018-Apr-16 22:00N 34°14' E 135°08'2 3.7
2018-Apr-16 21:30N 34°15' E 135°06'0 0.0
2018-Apr-16 21:00N 34°15' E 135°06'0 0.0
2018-Apr-16 20:30N 34°15' E 135°06'0 0.0
2018-Apr-16 20:00N 34°15' E 135°06'0 0.0
2018-Apr-16 19:30N 34°15' E 135°06'0 0.0
2018-Apr-16 19:00N 34°15' E 135°06'0 0.0
2018-Apr-16 18:30N 34°15' E 135°06'0 0.0
2018-Apr-16 18:00N 34°15' E 135°06'0 0.0
2018-Apr-16 17:30N 34°15' E 135°06'0 0.1
2018-Apr-16 17:00N 34°15' E 135°06'0 0.0
2018-Apr-16 16:30N 34°15' E 135°06'0 0.0
2018-Apr-16 16:00N 34°15' E 135°06'0 0.0
2018-Apr-16 15:30N 34°15' E 135°06'0 0.0
2018-Apr-16 15:00N 34°15' E 135°06'0 0.0
2018-Apr-16 14:30N 34°15' E 135°06'0 0.8
2018-Apr-16 14:00N 34°15' E 135°05'611.8
2018-Apr-16 13:30N 34°11' E 134°60'612.2
2018-Apr-16 13:00N 34°09' E 134°53'611.7
2018-Apr-16 12:30N 34°09' E 134°46'612.8
2018-Apr-16 12:00N 34°13' E 134°40'612.2
2018-Apr-16 11:30N 34°17' E 134°34'613.0
2018-Apr-16 11:01N 34°19' E 134°27'612.9
2018-Apr-16 10:30N 34°21' E 134°20'611.9
2018-Apr-16 09:58N 34°24' E 134°13'2 0.0
2018-Apr-14 21:29N 34°24' E 134°15'612.9
2018-Apr-14 21:00N 34°25' E 134°22'612.5
2018-Apr-14 20:30N 34°28' E 134°29'612.2
2018-Apr-14 20:00N 34°30' E 134°36'612.4
2018-Apr-14 19:31N 34°32' E 134°43'612.1
2018-Apr-14 19:00N 34°34' E 134°50'611.5
2018-Apr-14 18:31N 34°37' E 134°56'5 9.4
2018-Apr-14 18:01N 34°37' E 135°02'4 8.3
2018-Apr-14 17:30N 34°34' E 135°06'612.1
2018-Apr-14 17:00N 34°28' E 135°04'612.3
2018-Apr-14 16:30N 34°23' E 135°02'611.7
2018-Apr-14 16:00N 34°17' E 134°59'611.1
2018-Apr-14 15:30N 34°12' E 134°60'612.4
2018-Apr-14 15:00N 34°05' E 135°00'612.6
2018-Apr-14 14:30N 33°59' E 135°01'612.2
2018-Apr-14 14:00N 33°53' E 135°02'611.6
2018-Apr-14 13:28N 33°47' E 135°05'  

Dump ship's entire track history